Time;durP1;ratioP1;P1;durP2;ratioP2;P2;SDS_P1;SDS_P2;PMS_P1;PMS_P2;Temp;Humidity;BMP_temperature;BMP_pressure;BME280_temperature;BME280_humidity;BME280_pressure;Samples;Min_cycle;Max_cycle;Signal;HPM_P1;HPM_P2
2023/08/29 00:00:31;;;;;;;3.90;3.30;;;;;;;13.19;99.63;101172.13;5051419;28;20465;-86
2023/08/29 00:02:57;;;;;;;7.03;3.47;;;;;;;13.15;99.76;101175.72;5041559;28;20096;-86
2023/08/29 00:05:22;;;;;;;4.63;3.28;;;;;;;13.13;99.57;101173.19;5048384;28;20048;-86
2023/08/29 00:07:47;;;;;;;8.15;3.47;;;;;;;13.10;99.76;101167.19;5044593;28;20070;-85
2023/08/29 00:10:12;;;;;;;5.10;3.10;;;;;;;13.07;99.05;101162.91;5048404;28;20021;-86
2023/08/29 00:12:41;;;;;;;4.97;3.05;;;;;;;13.03;99.13;101161.28;5036555;28;20392;-86
2023/08/29 00:15:07;;;;;;;4.60;3.15;;;;;;;13.00;99.74;101164.00;5047221;28;20028;-86
2023/08/29 00:17:32;;;;;;;4.63;3.35;;;;;;;12.98;99.67;101158.00;5047450;28;20025;-86
2023/08/29 00:19:57;;;;;;;3.65;2.95;;;;;;;12.93;99.71;101154.66;5048315;28;20032;-86
2023/08/29 00:22:23;;;;;;;5.18;3.38;;;;;;;12.92;100.00;101152.94;5048142;28;20036;-86
2023/08/29 00:24:52;;;;;;;4.60;3.30;;;;;;;12.88;100.00;101147.81;5044596;28;20495;-86
2023/08/29 00:27:17;;;;;;;4.35;3.05;;;;;;;12.87;99.52;101140.88;5066159;28;20028;-84
2023/08/29 00:29:43;;;;;;;5.60;3.00;;;;;;;12.85;100.00;101142.66;5046114;28;20089;-84
2023/08/29 00:32:08;;;;;;;4.07;2.85;;;;;;;12.86;100.00;101143.53;5045269;28;20029;-84
2023/08/29 00:34:33;;;;;;;4.75;2.95;;;;;;;12.84;100.00;101146.19;5048205;28;20036;-86
2023/08/29 00:36:59;;;;;;;5.40;3.30;;;;;;;12.82;100.00;101141.91;5049996;28;20106;-85
2023/08/29 00:39:24;;;;;;;4.80;2.88;;;;;;;12.80;99.77;101136.75;5049795;28;20036;-84
2023/08/29 00:41:51;;;;;;;4.85;3.03;;;;;;;12.76;100.00;101140.34;5041219;28;20025;-84
2023/08/29 00:44:16;;;;;;;4.72;2.90;;;;;;;12.75;100.00;101139.47;5041089;28;20036;-85
2023/08/29 00:46:44;;;;;;;3.38;2.58;;;;;;;12.74;100.00;101144.75;5051626;28;20037;-85
2023/08/29 00:49:11;;;;;;;4.60;2.72;;;;;;;12.72;100.00;101141.34;5054191;28;20041;-85
2023/08/29 00:51:38;;;;;;;3.63;2.78;;;;;;;12.69;100.00;101131.84;5040488;28;20025;-85
2023/08/29 00:54:04;;;;;;;5.13;3.25;;;;;;;12.69;100.00;101130.97;5054155;28;20036;-85
2023/08/29 00:56:29;;;;;;;4.47;2.75;;;;;;;12.68;100.00;101139.72;5052628;28;20037;-85
2023/08/29 00:58:54;;;;;;;4.65;2.75;;;;;;;12.66;100.00;101139.78;5046305;28;20525;-86
2023/08/29 01:01:20;;;;;;;4.75;2.95;;;;;;;12.63;100.00;101132.03;5051729;28;20071;-86
2023/08/29 01:03:46;;;;;;;4.00;2.97;;;;;;;12.61;100.00;101131.22;5054051;28;20047;-85
2023/08/29 01:06:13;;;;;;;4.45;2.90;;;;;;;12.58;100.00;101129.56;5055091;28;20167;-85
2023/08/29 01:08:39;;;;;;;4.00;3.00;;;;;;;12.59;100.00;101130.41;5044325;28;20485;-85
2023/08/29 01:11:13;;;;;;;6.10;3.00;;;;;;;12.58;100.00;101134.78;5041573;28;20080;-85
2023/08/29 01:13:54;;;;;;;3.55;2.88;;;;;;;12.57;100.00;101135.69;5054605;28;20430;-85
2023/08/29 01:16:28;;;;;;;5.85;3.08;;;;;;;12.60;100.00;101135.59;5055578;28;20559;-85
2023/08/29 01:18:54;;;;;;;4.57;3.00;;;;;;;12.61;100.00;101133.81;5055296;28;20048;-85
2023/08/29 01:21:29;;;;;;;3.95;3.20;;;;;;;12.60;100.00;101132.13;5054204;28;20388;-85
2023/08/29 01:24:07;;;;;;;3.95;3.00;;;;;;;12.57;100.00;101127.84;5055305;28;20113;-85
2023/08/29 01:26:34;;;;;;;4.07;2.97;;;;;;;12.56;100.00;101133.09;5055315;28;20024;-85
2023/08/29 01:29:01;;;;;;;3.90;2.70;;;;;;;12.54;100.00;101137.53;5044278;28;20158;-84
2023/08/29 01:31:29;;;;;;;4.28;3.05;;;;;;;12.52;100.00;101128.88;5035183;28;20040;-84
2023/08/29 01:33:57;;;;;;;4.15;3.05;;;;;;;12.52;100.00;101124.50;5035089;28;20021;-85
2023/08/29 01:36:22;;;;;;;3.90;3.00;;;;;;;12.54;100.00;101134.94;5043367;28;20071;-85
2023/08/29 01:38:47;;;;;;;5.35;3.08;;;;;;;12.54;100.00;101135.75;5054230;28;20491;-85
2023/08/29 01:41:12;;;;;;;5.53;2.92;;;;;;;12.52;100.00;101134.94;5050983;28;20499;-86
2023/08/29 01:43:38;;;;;;;4.43;2.83;;;;;;;12.51;100.00;101132.41;5053346;28;20021;-85
2023/08/29 01:46:03;;;;;;;5.22;3.00;;;;;;;12.48;100.00;101128.09;5050203;28;20029;-85
2023/08/29 01:48:30;;;;;;;4.25;2.70;;;;;;;12.47;100.00;101130.78;5050980;28;20520;-85
2023/08/29 01:50:55;;;;;;;3.45;2.80;;;;;;;12.44;100.00;101139.56;5052062;28;20029;-85
2023/08/29 01:53:21;;;;;;;3.30;2.70;;;;;;;12.41;100.00;101140.47;5046673;28;20021;-85
2023/08/29 01:55:48;;;;;;;5.03;2.97;;;;;;;12.40;100.00;101140.53;5047342;28;20029;-85
2023/08/29 01:58:15;;;;;;;3.80;2.53;;;;;;;12.38;100.00;101139.72;5053162;28;20041;-86
2023/08/29 02:00:40;;;;;;;4.13;2.65;;;;;;;12.37;100.00;101151.06;5039610;28;20033;-86
2023/08/29 02:03:06;;;;;;;3.75;2.80;;;;;;;12.36;100.00;101154.56;5051190;28;20437;-85
2023/08/29 02:05:31;;;;;;;7.28;2.80;;;;;;;12.35;100.00;101152.84;5052727;28;20029;-85
2023/08/29 02:07:57;;;;;;;4.45;2.97;;;;;;;12.33;100.00;101154.63;5053665;28;20021;-85
2023/08/29 02:10:22;;;;;;;3.88;3.00;;;;;;;12.32;100.00;101152.91;5053399;28;20035;-85
2023/08/29 02:12:47;;;;;;;4.18;2.97;;;;;;;12.30;100.00;101153.81;5048815;28;20388;-86
2023/08/29 02:15:13;;;;;;;4.18;3.00;;;;;;;12.30;100.00;101163.41;5052535;28;20067;-86
2023/08/29 02:17:38;;;;;;;2.78;2.28;;;;;;;12.28;100.00;101163.47;5050348;28;20040;-85
2023/08/29 02:20:05;;;;;;;3.50;2.33;;;;;;;12.25;100.00;101162.69;5046842;28;20059;-86
2023/08/29 02:22:31;;;;;;;2.67;1.98;;;;;;;12.26;100.00;101170.47;5053153;28;20522;-85
2023/08/29 02:24:56;;;;;;;2.72;2.22;;;;;;;12.26;100.00;101165.25;5053288;28;20111;-85
2023/08/29 02:27:21;;;;;;;3.42;2.53;;;;;;;12.27;100.00;101171.31;5051072;28;20029;-86
2023/08/29 02:29:47;;;;;;;4.28;2.58;;;;;;;12.26;100.00;101174.81;5049747;28;20115;-85
2023/08/29 02:32:12;;;;;;;5.43;2.97;;;;;;;12.26;100.00;101177.44;5049520;28;20219;-85
2023/08/29 02:34:37;;;;;;;4.00;2.90;;;;;;;12.26;100.00;101183.53;5053123;28;20043;-85
2023/08/29 02:37:03;;;;;;;4.25;2.95;;;;;;;12.27;100.00;101187.84;5052015;28;20035;-85
2023/08/29 02:39:30;;;;;;;4.55;3.00;;;;;;;12.26;100.00;101196.56;5053105;28;20040;-85
2023/08/29 02:41:55;;;;;;;6.75;3.25;;;;;;;12.25;100.00;101194.84;5050770;28;20082;-85
2023/08/29 02:44:20;;;;;;;6.18;2.60;;;;;;;12.23;100.00;101193.16;5048754;28;20037;-85
2023/08/29 02:46:46;;;;;;;3.03;2.60;;;;;;;12.21;100.00;101190.59;5042266;28;20067;-85
2023/08/29 02:49:11;;;;;;;4.38;2.53;;;;;;;12.21;100.00;101193.22;5046958;28;20032;-85
2023/08/29 02:51:36;;;;;;;3.70;2.80;;;;;;;12.23;100.00;101190.56;5046486;28;20041;-85
2023/08/29 02:54:02;;;;;;;3.92;2.85;;;;;;;12.21;100.00;101188.00;5043131;28;20078;-85
2023/08/29 02:56:27;;;;;;;3.03;2.30;;;;;;;12.18;100.00;101195.91;5041418;28;20032;-85
2023/08/29 02:58:54;;;;;;;3.10;2.25;;;;;;;12.19;100.00;101200.22;5040644;28;20483;-85
2023/08/29 03:01:19;;;;;;;4.03;2.30;;;;;;;12.20;100.00;101206.31;5050408;28;20475;-85
2023/08/29 03:03:45;;;;;;;3.03;2.30;;;;;;;12.22;100.00;101204.50;5043407;28;20075;-86
2023/08/29 03:06:10;;;;;;;3.72;2.10;;;;;;;12.21;100.00;101203.66;5052039;28;20032;-85
2023/08/29 03:08:35;;;;;;;4.13;2.10;;;;;;;12.19;100.00;101202.84;5047929;28;20070;-85
2023/08/29 03:11:06;;;;;;;3.90;2.28;;;;;;;12.16;100.00;101202.06;5045730;28;20040;-86
2023/08/29 03:13:32;;;;;;;3.70;2.28;;;;;;;12.16;100.00;101210.72;5047670;28;20056;-85
2023/08/29 03:16:00;;;;;;;6.90;2.28;;;;;;;12.16;100.00;101208.13;5043332;28;20057;-85
2023/08/29 03:18:28;;;;;;;2.88;2.40;;;;;;;12.16;100.00;101195.09;5042966;28;20025;-86
2023/08/29 03:20:54;;;;;;;2.90;2.45;;;;;;;12.16;100.00;101189.88;5049049;28;20369;-86
2023/08/29 03:23:19;;;;;;;2.70;2.28;;;;;;;12.16;100.00;101191.63;5050609;28;20091;-85
2023/08/29 03:25:44;;;;;;;5.65;2.90;;;;;;;12.14;100.00;101186.44;5048935;28;20080;-86
2023/08/29 03:28:10;;;;;;;3.55;2.80;;;;;;;12.11;100.00;101187.38;5039820;28;20034;-85
2023/08/29 03:30:35;;;;;;;3.47;2.80;;;;;;;12.09;100.00;101175.28;5049854;28;20035;-84
2023/08/29 03:33:01;;;;;;;3.63;2.60;;;;;;;12.06;100.00;101168.38;5066100;28;20040;-85
2023/08/29 03:35:26;;;;;;;3.10;2.40;;;;;;;12.06;100.00;101171.00;5050867;28;20062;-85
2023/08/29 03:37:51;;;;;;;3.97;2.88;;;;;;;12.06;100.00;101170.16;5045469;28;20376;-85
2023/08/29 03:40:17;;;;;;;5.30;3.13;;;;;;;12.04;100.00;101166.72;5051456;28;20029;-85
2023/08/29 03:42:42;;;;;;;3.78;2.58;;;;;;;12.00;100.00;101158.13;5042490;28;20055;-85
2023/08/29 03:45:08;;;;;;;3.30;2.60;;;;;;;11.97;100.00;101158.19;5050749;28;20345;-85
2023/08/29 03:47:35;;;;;;;4.03;2.60;;;;;;;11.91;100.00;101155.72;5050539;28;20058;-85
2023/08/29 03:50:01;;;;;;;3.85;2.30;;;;;;;11.87;100.00;101146.31;5048960;28;20480;-85
2023/08/29 03:52:27;;;;;;;2.42;2.03;;;;;;;11.84;100.00;101142.00;5051588;28;20055;-85
2023/08/29 03:54:53;;;;;;;2.47;2.03;;;;;;;11.82;100.00;101131.63;5051100;28;20025;-85
2023/08/29 03:57:19;;;;;;;2.30;1.90;;;;;;;11.80;100.00;101136.03;5051172;28;20452;-85
2023/08/29 03:59:44;;;;;;;3.20;1.77;;;;;;;11.83;100.00;101129.88;5051843;28;20025;-85
2023/08/29 04:02:09;;;;;;;2.65;1.80;;;;;;;11.84;100.00;101139.41;5051027;28;20033;-85
2023/08/29 04:04:35;;;;;;;2.92;2.17;;;;;;;11.85;100.00;101130.69;5049178;28;20090;-85
2023/08/29 04:07:01;;;;;;;2.08;1.85;;;;;;;11.83;100.00;101129.88;5050572;28;20025;-85
2023/08/29 04:09:26;;;;;;;2.80;1.95;;;;;;;11.79;100.00;101118.66;5050675;28;20036;-85
2023/08/29 04:11:51;;;;;;;3.75;1.90;;;;;;;11.78;100.00;101121.34;5047675;28;20032;-85
2023/08/29 04:14:17;;;;;;;3.42;1.83;;;;;;;11.76;100.00;101112.69;5050051;28;20391;-85
2023/08/29 04:16:42;;;;;;;2.33;1.80;;;;;;;11.74;100.00;101114.47;5046818;28;20025;-85
2023/08/29 04:19:07;;;;;;;2.13;1.63;;;;;;;11.71;100.00;101109.34;5051715;28;20539;-85
2023/08/29 04:21:33;;;;;;;1.77;1.60;;;;;;;11.69;100.00;101107.63;5051311;28;20395;-85
2023/08/29 04:23:59;;;;;;;1.45;1.35;;;;;;;11.69;100.00;101110.22;5053040;28;20079;-85
2023/08/29 04:26:25;;;;;;;3.53;2.30;;;;;;;11.71;100.00;101112.78;5047084;28;20045;-85
2023/08/29 04:28:50;;;;;;;3.17;2.38;;;;;;;11.72;100.00;101111.06;5053386;28;20053;-85
2023/08/29 04:31:17;;;;;;;2.33;1.75;;;;;;;11.74;100.00;101109.28;5048874;28;20413;-86
2023/08/29 04:33:42;;;;;;;3.70;2.17;;;;;;;11.74;100.00;101114.47;5042811;28;20048;-86
2023/08/29 04:36:08;;;;;;;2.70;2.10;;;;;;;11.73;100.00;101112.78;5038570;28;20098;-86
2023/08/29 04:38:33;;;;;;;3.17;2.10;;;;;;;11.72;100.00;101105.84;5042743;28;20025;-86
2023/08/29 04:40:58;;;;;;;4.00;2.47;;;;;;;11.71;100.00;101099.75;5036178;28;20035;-86
2023/08/29 04:43:24;;;;;;;3.38;2.67;;;;;;;11.72;100.00;101100.63;5037117;28;20040;-86
2023/08/29 04:45:51;;;;;;;5.10;3.13;;;;;;;11.71;100.00;101099.75;5061765;28;20032;-86
2023/08/29 04:48:17;;;;;;;5.07;3.00;;;;;;;11.73;100.00;101099.72;5049289;28;20027;-86
2023/08/29 04:50:45;;;;;;;3.83;2.60;;;;;;;11.73;100.00;101100.56;5048962;28;20021;-86
2023/08/29 04:53:10;;;;;;;3.75;2.80;;;;;;;11.74;100.00;101098.84;5049387;28;20029;-86
2023/08/29 04:55:35;;;;;;;3.72;2.65;;;;;;;11.74;100.00;101099.69;5042925;28;20108;-86
2023/08/29 04:58:00;;;;;;;3.38;2.80;;;;;;;11.77;100.00;101098.75;5047354;28;20060;-86
2023/08/29 05:00:26;;;;;;;3.15;2.58;;;;;;;11.79;100.00;101096.94;5048017;28;20029;-86
2023/08/29 05:02:51;;;;;;;3.13;2.53;;;;;;;11.80;100.00;101104.75;5046264;28;20034;-86
2023/08/29 05:05:16;;;;;;;4.22;2.78;;;;;;;11.80;100.00;101109.09;5045738;28;20090;-86
2023/08/29 05:07:42;;;;;;;3.10;2.58;;;;;;;11.81;100.00;101111.66;5047208;28;20020;-86
2023/08/29 05:10:07;;;;;;;3.65;2.78;;;;;;;11.82;100.00;101112.50;5047026;28;20021;-85
2023/08/29 05:12:33;;;;;;;4.30;2.90;;;;;;;11.83;100.00;101115.09;5047272;28;20041;-85
2023/08/29 05:14:58;;;;;;;4.97;2.90;;;;;;;11.85;100.00;101117.66;5048361;28;20021;-86
2023/08/29 05:17:23;;;;;;;4.70;2.85;;;;;;;11.88;100.00;101114.09;5050495;28;20028;-86
2023/08/29 05:19:50;;;;;;;4.78;3.33;;;;;;;11.92;100.00;101121.81;5050875;28;20025;-85
2023/08/29 05:22:16;;;;;;;3.88;3.03;;;;;;;11.94;100.00;101117.41;5043417;28;20122;-85
2023/08/29 05:24:41;;;;;;;5.28;3.10;;;;;;;11.97;100.00;101117.31;5047958;28;20028;-85
2023/08/29 05:27:06;;;;;;;5.57;3.20;;;;;;;11.97;100.00;101125.13;5055737;28;20052;-86
2023/08/29 05:29:32;;;;;;;7.65;3.50;;;;;;;11.99;100.00;101131.19;5041320;28;20025;-86
2023/08/29 05:31:57;;;;;;;4.78;3.50;;;;;;;12.01;100.00;101122.47;5047193;28;20068;-86
2023/08/29 05:34:22;;;;;;;6.20;3.30;;;;;;;12.03;100.00;101128.50;5047854;28;20504;-86
2023/08/29 05:36:49;;;;;;;4.70;3.00;;;;;;;12.04;100.00;101127.63;5049061;28;20437;-86
2023/08/29 05:39:14;;;;;;;4.20;3.13;;;;;;;12.05;100.00;101134.53;5047493;28;20024;-85
2023/08/29 05:41:39;;;;;;;4.15;3.17;;;;;;;12.08;100.00;101134.47;5045446;28;20024;-86
2023/08/29 05:44:05;;;;;;;5.30;3.30;;;;;;;12.08;100.00;101124.03;5043423;28;20039;-86
2023/08/29 05:46:31;;;;;;;5.28;3.30;;;;;;;12.11;100.00;101129.16;5041214;28;20128;-86
2023/08/29 05:48:58;;;;;;;4.00;3.05;;;;;;;12.12;100.00;101133.50;5040366;28;20028;-86
2023/08/29 05:51:23;;;;;;;6.47;3.03;;;;;;;12.11;100.00;101124.78;5048369;28;20032;-86
2023/08/29 05:53:48;;;;;;;3.92;3.05;;;;;;;12.11;100.00;101137.00;5043259;28;20102;-86
2023/08/29 05:56:13;;;;;;;6.15;3.22;;;;;;;12.10;100.00;101143.94;5046696;28;20031;-86
2023/08/29 05:58:40;;;;;;;3.90;2.95;;;;;;;12.14;100.00;101139.50;5043005;28;20037;-86
2023/08/29 06:01:06;;;;;;;4.80;3.25;;;;;;;12.16;100.00;101142.06;5039189;28;20064;-86
2023/08/29 06:03:32;;;;;;;3.70;2.72;;;;;;;12.19;100.00;101131.56;5052591;28;20079;-86
2023/08/29 06:05:57;;;;;;;5.53;3.30;;;;;;;12.23;100.00;101138.38;5052886;28;20488;-85
2023/08/29 06:08:23;;;;;;;4.05;3.13;;;;;;;12.25;100.00;101134.84;5052534;28;20495;-85
2023/08/29 06:10:48;;;;;;;4.13;3.15;;;;;;;12.30;100.00;101137.31;5051861;28;20036;-86
2023/08/29 06:13:13;;;;;;;4.22;2.90;;;;;;;12.34;100.00;101130.25;5051934;28;20047;-86
2023/08/29 06:15:39;;;;;;;4.30;3.15;;;;;;;12.36;100.00;101134.56;5053620;28;20025;-86
2023/08/29 06:18:04;;;;;;;4.75;3.22;;;;;;;12.38;100.00;101126.66;5052858;28;20150;-86
2023/08/29 06:20:31;;;;;;;6.68;3.25;;;;;;;12.40;100.00;101130.09;5052052;28;20388;-86
2023/08/29 06:22:56;;;;;;;5.38;3.20;;;;;;;12.43;100.00;101135.22;5052028;28;20464;-86
2023/08/29 06:25:24;;;;;;;4.90;3.63;;;;;;;12.50;100.00;101130.69;5045061;28;20062;-86
2023/08/29 06:27:49;;;;;;;6.57;3.67;;;;;;;12.53;100.00;101128.84;5048499;28;20034;-86
2023/08/29 06:30:15;;;;;;;6.38;3.85;;;;;;;12.57;100.00;101133.06;5044088;28;20039;-86
2023/08/29 06:32:41;;;;;;;4.72;4.00;;;;;;;12.59;100.00;101131.28;5042809;28;20029;-86
2023/08/29 06:35:09;;;;;;;5.18;4.05;;;;;;;12.65;100.00;101131.97;5046991;28;20317;-86
2023/08/29 06:37:34;;;;;;;5.82;4.93;;;;;;;12.69;100.00;101136.22;5040377;28;20071;-86
2023/08/29 06:40:00;;;;;;;6.38;5.57;;;;;;;12.74;100.00;101135.16;5043232;28;20119;-86
2023/08/29 06:42:25;;;;;;;8.18;5.90;;;;;;;12.78;100.00;101135.94;5051084;28;20029;-86
2023/08/29 06:44:50;;;;;;;7.03;5.25;;;;;;;12.85;100.00;101137.44;5045430;28;20028;-86
2023/08/29 06:47:16;;;;;;;6.93;5.65;;;;;;;12.90;100.00;101132.94;5051394;28;20039;-86
2023/08/29 06:49:41;;;;;;;6.45;5.25;;;;;;;12.97;100.00;101140.59;5046273;28;20052;-86
2023/08/29 06:52:06;;;;;;;7.25;5.65;;;;;;;13.03;100.00;101135.19;5045093;28;20048;-86
2023/08/29 06:54:31;;;;;;;6.32;5.60;;;;;;;13.08;100.00;101128.06;5039649;28;20106;-86
2023/08/29 06:56:57;;;;;;;6.60;5.57;;;;;;;13.15;100.00;101131.31;5046592;28;20075;-85
2023/08/29 06:59:22;;;;;;;7.32;5.50;;;;;;;13.19;100.00;101119.88;5041677;28;20440;-86
2023/08/29 07:01:47;;;;;;;7.57;5.97;;;;;;;13.26;100.00;101129.22;5037806;28;20044;-86
2023/08/29 07:04:12;;;;;;;7.40;5.45;;;;;;;13.31;100.00;101135.16;5040554;28;20036;-86
2023/08/29 07:06:39;;;;;;;8.57;5.43;;;;;;;13.36;100.00;101125.41;5047578;28;20029;-86
2023/08/29 07:09:05;;;;;;;6.50;5.07;;;;;;;13.43;100.00;101122.59;5036725;28;20424;-86
2023/08/29 07:11:30;;;;;;;6.38;5.25;;;;;;;13.47;100.00;101122.47;5040365;28;20036;-86
2023/08/29 07:13:55;;;;;;;6.45;5.28;;;;;;;13.54;100.00;101130.09;5047465;28;20037;-86
2023/08/29 07:16:21;;;;;;;6.05;4.75;;;;;;;13.60;100.00;101124.66;5043856;28;20033;-86
2023/08/29 07:18:46;;;;;;;7.90;4.95;;;;;;;13.67;100.00;101113.09;5045614;28;20369;-85
2023/08/29 07:21:12;;;;;;;5.97;4.88;;;;;;;13.74;100.00;101118.97;5046379;28;20029;-86
2023/08/29 07:23:37;;;;;;;6.40;4.88;;;;;;;13.81;100.00;101117.84;5048767;28;20116;-86
2023/08/29 07:26:02;;;;;;;7.32;5.03;;;;;;;13.87;100.00;101122.00;5044342;28;20041;-86
2023/08/29 07:28:27;;;;;;;6.32;4.68;;;;;;;13.93;100.00;101119.19;5045878;28;20083;-86
2023/08/29 07:30:53;;;;;;;5.50;4.38;;;;;;;13.99;100.00;101116.34;5044982;28;20032;-86
2023/08/29 07:33:18;;;;;;;5.80;4.28;;;;;;;14.03;100.00;101123.16;5046181;28;20078;-86
2023/08/29 07:35:45;;;;;;;6.47;4.13;;;;;;;14.07;100.00;101119.53;5043884;28;20035;-86
2023/08/29 07:38:11;;;;;;;6.00;4.00;;;;;;;14.14;100.00;101116.72;5045812;28;20108;-86
2023/08/29 07:40:36;;;;;;;6.03;4.18;;;;;;;14.21;100.00;101120.78;5046925;28;20449;-86
2023/08/29 07:43:04;;;;;;;5.18;4.20;;;;;;;14.26;100.00;101124.94;5047381;28;20033;-86
2023/08/29 07:45:30;;;;;;;6.30;4.57;;;;;;;14.32;100.00;101123.03;5044353;28;20095;-86
2023/08/29 07:47:55;;;;;;;8.38;3.78;;;;;;;14.38;100.00;101122.81;5046175;28;20457;-86
2023/08/29 07:50:21;;;;;;;5.53;4.13;;;;;;;14.44;100.00;101119.09;5047479;28;20086;-86
2023/08/29 07:52:46;;;;;;;6.38;4.22;;;;;;;14.50;100.00;101127.56;5043326;28;20059;-86
2023/08/29 07:55:11;;;;;;;5.65;4.20;;;;;;;14.57;100.00;101133.44;5044435;28;20677;-87
2023/08/29 07:57:37;;;;;;;6.00;4.53;;;;;;;14.64;100.00;101134.91;5041226;28;20064;-85
2023/08/29 08:00:03;;;;;;;6.00;4.97;;;;;;;14.70;100.00;101134.69;5047262;28;20024;-86
2023/08/29 08:02:28;;;;;;;8.13;5.75;;;;;;;14.79;100.00;101136.09;5047672;28;20515;-86
2023/08/29 08:04:54;;;;;;;7.70;6.00;;;;;;;14.83;100.00;101134.22;5042995;28;20028;-86
2023/08/29 08:07:19;;;;;;;8.05;5.68;;;;;;;14.91;100.00;101136.56;5045498;28;20024;-85
2023/08/29 08:09:44;;;;;;;7.15;5.75;;;;;;;14.97;100.00;101141.53;5044261;28;20032;-86
2023/08/29 08:12:09;;;;;;;6.13;5.25;;;;;;;14.99;100.00;101145.81;5038271;28;20094;-85
2023/08/29 08:14:35;;;;;;;6.75;4.60;;;;;;;15.05;100.00;101143.84;5040244;28;20029;-85
2023/08/29 08:17:00;;;;;;;6.22;4.82;;;;;;;15.10;100.00;101139.28;5043553;28;20025;-86
2023/08/29 08:19:26;;;;;;;5.30;4.10;;;;;;;15.15;100.00;101150.44;5042343;28;20052;-85
2023/08/29 08:21:51;;;;;;;5.50;4.00;;;;;;;15.17;100.00;101138.13;5043724;28;20033;-85
2023/08/29 08:24:16;;;;;;;5.68;4.00;;;;;;;15.16;100.00;101136.44;5043771;28;20443;-86
2023/08/29 08:26:43;;;;;;;5.10;3.72;;;;;;;15.21;100.00;101142.31;5045786;28;20043;-85
2023/08/29 08:29:09;;;;;;;6.10;4.10;;;;;;;15.24;100.00;101134.34;5046522;28;20025;-86
2023/08/29 08:31:34;;;;;;;4.78;3.53;;;;;;;15.27;100.00;101147.31;5046743;28;20024;-86
2023/08/29 08:33:59;;;;;;;6.88;3.33;;;;;;;15.29;100.00;101142.88;5045120;28;20032;-86
2023/08/29 08:36:25;;;;;;;6.45;3.60;;;;;;;15.36;100.00;101142.63;5048116;28;20078;-85
2023/08/29 08:38:50;;;;;;;4.60;3.42;;;;;;;15.39;100.00;101142.47;5049984;28;20021;-85
2023/08/29 08:41:18;;;;;;;5.00;3.15;;;;;;;15.42;100.00;101147.59;5045534;28;20025;-85
2023/08/29 08:43:44;;;;;;;4.28;2.85;;;;;;;15.46;100.00;101141.31;5046817;28;20028;-85
2023/08/29 08:46:14;;;;;;;6.57;3.15;;;;;;;15.48;100.00;101136.88;5046943;28;20041;-85
2023/08/29 08:48:40;;;;;;;6.07;3.42;;;;;;;15.53;100.00;101137.53;5063195;28;20477;-85
2023/08/29 08:51:06;;;;;;;3.60;2.72;;;;;;;15.56;100.00;101137.38;5043248;28;20035;-85
2023/08/29 08:53:32;;;;;;;6.82;3.28;;;;;;;15.62;100.00;101137.16;5044304;28;20029;-85
2023/08/29 08:55:58;;;;;;;4.18;2.83;;;;;;;15.66;100.00;101137.03;5046817;28;20051;-85
2023/08/29 08:58:23;;;;;;;5.53;3.03;;;;;;;15.68;98.62;101133.41;5045115;28;20037;-85
2023/08/29 09:00:49;;;;;;;4.05;3.28;;;;;;;15.71;97.83;101137.69;5050101;28;20490;-85
2023/08/29 09:03:14;;;;;;;4.68;3.00;;;;;;;15.78;99.53;101133.88;5043836;28;20438;-85
2023/08/29 09:05:41;;;;;;;3.80;2.95;;;;;;;15.82;99.85;101127.56;5032069;28;20433;-85
2023/08/29 09:08:06;;;;;;;4.93;2.92;;;;;;;15.83;96.46;101131.91;5048304;28;20033;-85
2023/08/29 09:10:33;;;;;;;3.92;2.60;;;;;;;15.85;94.25;101140.59;5055257;28;20538;-86
2023/08/29 09:12:58;;;;;;;3.15;2.60;;;;;;;15.88;95.14;101140.47;5059052;28;20438;-85
2023/08/29 09:15:26;;;;;;;4.15;2.83;;;;;;;15.96;97.67;101136.63;5051450;28;20025;-86
2023/08/29 09:17:53;;;;;;;3.25;2.53;;;;;;;16.02;96.87;101146.88;5053766;28;20032;-85
2023/08/29 09:20:20;;;;;;;4.38;2.80;;;;;;;16.07;95.50;101144.88;5055328;28;20415;-85
2023/08/29 09:22:46;;;;;;;4.35;3.33;;;;;;;16.15;96.64;101140.16;5048087;28;20516;-86
2023/08/29 09:25:11;;;;;;;3.60;2.58;;;;;;;16.21;96.08;101142.53;5050508;28;20032;-85
2023/08/29 09:27:42;;;;;;;4.75;3.13;;;;;;;16.26;94.35;101146.69;5051566;28;20484;-85
2023/08/29 09:30:09;;;;;;;4.53;3.28;;;;;;;16.31;93.56;101149.97;5047302;28;20029;-86
2023/08/29 09:32:34;;;;;;;4.95;3.15;;;;;;;16.37;92.38;101154.97;5048129;28;20021;-85
2023/08/29 09:35:00;;;;;;;3.40;2.38;;;;;;;16.44;91.59;101150.28;5047140;28;20104;-85
2023/08/29 09:37:25;;;;;;;3.60;3.05;;;;;;;16.50;91.10;101157.84;5045267;28;20025;-85
2023/08/29 09:39:53;;;;;;;4.38;3.25;;;;;;;16.56;90.71;101151.50;5042761;28;20569;-86
2023/08/29 09:42:21;;;;;;;4.82;3.28;;;;;;;16.64;90.21;101141.47;5049092;28;20433;-85
2023/08/29 09:44:49;;;;;;;4.90;3.63;;;;;;;16.74;89.67;101140.09;5048110;28;20077;-86
2023/08/29 09:47:22;;;;;;;4.20;3.38;;;;;;;16.84;89.91;101146.66;5046153;28;20021;-86
2023/08/29 09:49:47;;;;;;;3.80;3.40;;;;;;;16.95;92.68;101140.94;5047560;28;20039;-86
2023/08/29 09:52:16;;;;;;;6.85;3.65;;;;;;;17.02;91.21;101132.72;5047228;28;20021;-86
2023/08/29 09:54:50;;;;;;;5.38;3.00;;;;;;;17.08;88.17;101138.53;5048532;28;20112;-86
2023/08/29 09:57:21;;;;;;;4.05;2.47;;;;;;;17.15;86.19;101133.84;5045347;28;20037;-89
2023/08/29 09:59:51;;;;;;;3.28;2.50;;;;;;;17.23;83.72;101133.47;5045041;28;20053;-86
2023/08/29 10:02:20;;;;;;;3.40;2.60;;;;;;;17.31;87.28;101136.56;5049773;28;20036;-86
2023/08/29 10:04:54;;;;;;;4.75;3.10;;;;;;;17.36;83.68;101137.19;5048859;28;20021;-86
2023/08/29 10:07:33;;;;;;;2.95;2.35;;;;;;;17.37;81.46;101133.66;5048361;28;20031;-86
2023/08/29 10:09:59;;;;;;;2.47;2.22;;;;;;;17.38;81.92;101126.59;5048101;28;20036;-86
2023/08/29 10:12:27;;;;;;;3.13;2.65;;;;;;;17.42;83.46;101131.59;5044300;28;20075;-86
2023/08/29 10:14:53;;;;;;;4.93;2.78;;;;;;;17.47;82.65;101127.91;5050450;28;20356;-86
2023/08/29 10:17:19;;;;;;;3.53;2.72;;;;;;;17.49;83.61;101126.06;5046528;28;20434;-86
2023/08/29 10:19:46;;;;;;;3.75;2.40;;;;;;;17.48;82.12;101126.97;5048047;28;20522;-86
2023/08/29 10:22:12;;;;;;;4.85;2.67;;;;;;;17.50;84.12;101128.63;5047581;28;20060;-86
2023/08/29 10:24:39;;;;;;;3.20;2.72;;;;;;;17.50;83.10;101128.63;5046476;28;20063;-87
2023/08/29 10:27:05;;;;;;;3.08;2.20;;;;;;;17.50;83.23;101127.75;5045259;28;20028;-86
2023/08/29 10:29:31;;;;;;;4.13;2.35;;;;;;;17.45;80.66;101125.38;5049187;28;20033;-86
2023/08/29 10:31:59;;;;;;;3.75;2.08;;;;;;;17.44;81.12;101124.50;5045401;28;20407;-86
2023/08/29 10:34:27;;;;;;;3.75;2.00;;;;;;;17.43;80.25;101132.47;5047574;28;20029;-87
2023/08/29 10:36:53;;;;;;;3.25;1.98;;;;;;;17.42;82.28;101121.09;5049592;28;20072;-87
2023/08/29 10:39:19;;;;;;;3.78;2.17;;;;;;;17.41;80.43;101124.69;5048537;28;20049;-87
2023/08/29 10:41:48;;;;;;;2.63;1.95;;;;;;;17.42;80.69;101120.25;5048443;28;20033;-87
2023/08/29 10:44:28;;;;;;;2.15;1.88;;;;;;;17.42;84.21;101123.72;5051667;28;20111;-87
2023/08/29 10:46:54;;;;;;;2.58;1.98;;;;;;;17.37;79.36;101117.00;5045442;28;20060;-87
2023/08/29 10:49:22;;;;;;;2.00;1.60;;;;;;;17.35;79.42;101118.84;5048418;28;20052;-87
2023/08/29 10:52:08;;;;;;;3.85;1.80;;;;;;;17.37;80.96;101125.75;5046971;28;20052;-87
2023/08/29 10:54:33;;;;;;;3.60;2.13;;;;;;;17.40;81.07;101112.47;5048120;28;20189;-87
2023/08/29 10:56:58;;;;;;;3.30;2.30;;;;;;;17.45;80.52;101115.69;5043712;28;20031;-87
2023/08/29 10:59:29;;;;;;;4.05;2.05;;;;;;;17.50;81.55;101119.88;5038648;28;20083;-87
2023/08/29 11:02:40;;;;;;;3.42;2.50;;;;;;;17.56;82.54;101111.69;5042019;28;20033;-87
2023/08/29 11:05:06;;;;;;;;;;;;;;;17.63;83.26;101110.41;5043426;28;20079;-86
2023/08/29 11:07:32;;;;;;;2.63;2.10;;;;;;;17.62;79.67;101106.06;5044789;28;19916;-87
2023/08/29 11:10:17;;;;;;;3.58;2.08;;;;;;;17.67;81.66;101109.34;5049729;28;20302;-87
2023/08/29 11:13:06;;;;;;;2.58;2.20;;;;;;;17.70;80.48;101103.06;5052226;28;20016;-87
2023/08/29 11:15:47;;;;;;;2.90;2.10;;;;;;;17.73;79.70;101093.25;5049806;28;20040;-87